sensor_id;sensor_type;location;lat;lon;timestamp;P1;durP1;ratioP1;P2;durP2;ratioP2
12958;SDS011;6544;51.666;6.634;2023-08-20T00:01:45;9.25;;;5.65;;
12958;SDS011;6544;51.666;6.634;2023-08-20T00:04:12;7.35;;;5.05;;
12958;SDS011;6544;51.666;6.634;2023-08-20T00:06:40;6.65;;;4.50;;
12958;SDS011;6544;51.666;6.634;2023-08-20T00:09:09;6.97;;;4.57;;
12958;SDS011;6544;51.666;6.634;2023-08-20T00:11:36;7.28;;;5.30;;
12958;SDS011;6544;51.666;6.634;2023-08-20T00:14:03;10.10;;;5.03;;
12958;SDS011;6544;51.666;6.634;2023-08-20T00:16:32;7.65;;;5.65;;
12958;SDS011;6544;51.666;6.634;2023-08-20T00:19:01;7.03;;;5.40;;
12958;SDS011;6544;51.666;6.634;2023-08-20T00:21:29;5.82;;;4.78;;
12958;SDS011;6544;51.666;6.634;2023-08-20T00:23:56;6.25;;;4.88;;
12958;SDS011;6544;51.666;6.634;2023-08-20T00:26:24;6.75;;;4.78;;
12958;SDS011;6544;51.666;6.634;2023-08-20T00:28:51;7.63;;;5.30;;
12958;SDS011;6544;51.666;6.634;2023-08-20T00:31:18;6.63;;;5.38;;
12958;SDS011;6544;51.666;6.634;2023-08-20T00:33:46;5.63;;;4.70;;
12958;SDS011;6544;51.666;6.634;2023-08-20T00:36:13;8.07;;;5.47;;
12958;SDS011;6544;51.666;6.634;2023-08-20T00:38:40;7.10;;;5.13;;
12958;SDS011;6544;51.666;6.634;2023-08-20T00:41:07;7.68;;;5.10;;
12958;SDS011;6544;51.666;6.634;2023-08-20T00:43:34;8.68;;;5.30;;
12958;SDS011;6544;51.666;6.634;2023-08-20T00:46:01;10.85;;;5.40;;
12958;SDS011;6544;51.666;6.634;2023-08-20T00:48:28;8.98;;;5.45;;
12958;SDS011;6544;51.666;6.634;2023-08-20T00:50:57;9.98;;;5.35;;
12958;SDS011;6544;51.666;6.634;2023-08-20T00:53:24;6.82;;;5.35;;
12958;SDS011;6544;51.666;6.634;2023-08-20T00:55:51;6.00;;;4.88;;
12958;SDS011;6544;51.666;6.634;2023-08-20T00:58:18;7.10;;;4.95;;
12958;SDS011;6544;51.666;6.634;2023-08-20T01:00:45;6.28;;;5.00;;
12958;SDS011;6544;51.666;6.634;2023-08-20T01:03:12;9.50;;;6.00;;
12958;SDS011;6544;51.666;6.634;2023-08-20T01:05:42;7.22;;;5.53;;
12958;SDS011;6544;51.666;6.634;2023-08-20T01:08:25;6.85;;;5.15;;
12958;SDS011;6544;51.666;6.634;2023-08-20T01:10:57;8.70;;;5.63;;
12958;SDS011;6544;51.666;6.634;2023-08-20T01:13:29;9.65;;;6.05;;
12958;SDS011;6544;51.666;6.634;2023-08-20T01:15:56;8.20;;;6.28;;
12958;SDS011;6544;51.666;6.634;2023-08-20T01:18:23;9.95;;;6.35;;
12958;SDS011;6544;51.666;6.634;2023-08-20T01:20:51;8.43;;;5.72;;
12958;SDS011;6544;51.666;6.634;2023-08-20T01:26:40;6.80;;;5.70;;
12958;SDS011;6544;51.666;6.634;2023-08-20T01:29:22;6.20;;;5.25;;
12958;SDS011;6544;51.666;6.634;2023-08-20T01:31:49;7.28;;;5.65;;
12958;SDS011;6544;51.666;6.634;2023-08-20T01:34:17;6.22;;;5.35;;
12958;SDS011;6544;51.666;6.634;2023-08-20T01:36:44;8.52;;;5.10;;
12958;SDS011;6544;51.666;6.634;2023-08-20T01:39:11;8.23;;;5.15;;
12958;SDS011;6544;51.666;6.634;2023-08-20T01:41:38;8.43;;;5.60;;
12958;SDS011;6544;51.666;6.634;2023-08-20T01:44:05;8.63;;;5.38;;
12958;SDS011;6544;51.666;6.634;2023-08-20T01:46:34;8.40;;;5.90;;
12958;SDS011;6544;51.666;6.634;2023-08-20T01:49:01;7.85;;;5.63;;
12958;SDS011;6544;51.666;6.634;2023-08-20T01:51:28;12.15;;;5.70;;
12958;SDS011;6544;51.666;6.634;2023-08-20T01:53:55;9.77;;;5.85;;
12958;SDS011;6544;51.666;6.634;2023-08-20T01:56:22;6.85;;;5.32;;
12958;SDS011;6544;51.666;6.634;2023-08-20T01:58:49;7.47;;;5.55;;
12958;SDS011;6544;51.666;6.634;2023-08-20T02:01:16;8.50;;;6.18;;
12958;SDS011;6544;51.666;6.634;2023-08-20T02:03:45;8.45;;;6.07;;
12958;SDS011;6544;51.666;6.634;2023-08-20T02:06:11;9.55;;;6.05;;
12958;SDS011;6544;51.666;6.634;2023-08-20T02:08:38;8.00;;;5.93;;
12958;SDS011;6544;51.666;6.634;2023-08-20T02:11:05;8.55;;;6.00;;
12958;SDS011;6544;51.666;6.634;2023-08-20T02:13:32;9.60;;;5.57;;
12958;SDS011;6544;51.666;6.634;2023-08-20T02:15:59;8.90;;;6.28;;
12958;SDS011;6544;51.666;6.634;2023-08-20T02:18:27;12.43;;;6.05;;
12958;SDS011;6544;51.666;6.634;2023-08-20T02:20:55;8.45;;;5.78;;
12958;SDS011;6544;51.666;6.634;2023-08-20T02:23:22;8.05;;;5.50;;
12958;SDS011;6544;51.666;6.634;2023-08-20T02:25:49;7.28;;;5.72;;
12958;SDS011;6544;51.666;6.634;2023-08-20T02:28:16;11.80;;;5.75;;
12958;SDS011;6544;51.666;6.634;2023-08-20T02:30:44;8.02;;;5.47;;
12958;SDS011;6544;51.666;6.634;2023-08-20T02:33:12;6.90;;;5.40;;
12958;SDS011;6544;51.666;6.634;2023-08-20T02:35:40;7.82;;;5.65;;
12958;SDS011;6544;51.666;6.634;2023-08-20T02:38:08;8.07;;;5.75;;
12958;SDS011;6544;51.666;6.634;2023-08-20T02:40:39;8.27;;;5.60;;
12958;SDS011;6544;51.666;6.634;2023-08-20T02:43:06;7.63;;;5.63;;
12958;SDS011;6544;51.666;6.634;2023-08-20T02:45:38;8.25;;;5.18;;
12958;SDS011;6544;51.666;6.634;2023-08-20T02:48:06;7.35;;;5.15;;
12958;SDS011;6544;51.666;6.634;2023-08-20T02:50:33;8.07;;;5.10;;
12958;SDS011;6544;51.666;6.634;2023-08-20T02:53:00;7.40;;;5.68;;
12958;SDS011;6544;51.666;6.634;2023-08-20T02:55:29;9.18;;;6.32;;
12958;SDS011;6544;51.666;6.634;2023-08-20T02:57:57;8.55;;;6.78;;
12958;SDS011;6544;51.666;6.634;2023-08-20T03:00:24;11.77;;;6.93;;
12958;SDS011;6544;51.666;6.634;2023-08-20T03:02:51;10.50;;;6.85;;
12958;SDS011;6544;51.666;6.634;2023-08-20T03:05:18;11.88;;;7.40;;
12958;SDS011;6544;51.666;6.634;2023-08-20T03:07:45;9.57;;;7.03;;
12958;SDS011;6544;51.666;6.634;2023-08-20T03:10:12;10.32;;;7.63;;
12958;SDS011;6544;51.666;6.634;2023-08-20T03:12:40;9.13;;;7.43;;
12958;SDS011;6544;51.666;6.634;2023-08-20T03:15:07;10.95;;;6.82;;
12958;SDS011;6544;51.666;6.634;2023-08-20T03:17:34;10.43;;;7.90;;
12958;SDS011;6544;51.666;6.634;2023-08-20T03:20:01;10.88;;;7.63;;
12958;SDS011;6544;51.666;6.634;2023-08-20T03:22:31;13.43;;;7.55;;
12958;SDS011;6544;51.666;6.634;2023-08-20T03:24:58;15.77;;;8.45;;
12958;SDS011;6544;51.666;6.634;2023-08-20T03:27:25;14.88;;;8.32;;
12958;SDS011;6544;51.666;6.634;2023-08-20T03:29:54;9.68;;;7.63;;
12958;SDS011;6544;51.666;6.634;2023-08-20T03:32:21;12.40;;;7.97;;
12958;SDS011;6544;51.666;6.634;2023-08-20T03:34:48;10.57;;;7.80;;
12958;SDS011;6544;51.666;6.634;2023-08-20T03:37:15;9.70;;;8.00;;
12958;SDS011;6544;51.666;6.634;2023-08-20T03:39:43;12.18;;;7.95;;
12958;SDS011;6544;51.666;6.634;2023-08-20T03:42:10;11.32;;;8.18;;
12958;SDS011;6544;51.666;6.634;2023-08-20T03:44:37;11.25;;;7.68;;
12958;SDS011;6544;51.666;6.634;2023-08-20T03:47:05;11.93;;;7.18;;
12958;SDS011;6544;51.666;6.634;2023-08-20T03:49:32;11.05;;;7.25;;
12958;SDS011;6544;51.666;6.634;2023-08-20T03:51:59;11.82;;;7.57;;
12958;SDS011;6544;51.666;6.634;2023-08-20T03:54:27;9.13;;;6.75;;
12958;SDS011;6544;51.666;6.634;2023-08-20T03:56:54;10.73;;;6.75;;
12958;SDS011;6544;51.666;6.634;2023-08-20T03:59:21;10.07;;;7.65;;
12958;SDS011;6544;51.666;6.634;2023-08-20T04:01:48;10.55;;;8.18;;
12958;SDS011;6544;51.666;6.634;2023-08-20T04:04:17;10.98;;;8.10;;
12958;SDS011;6544;51.666;6.634;2023-08-20T04:06:44;13.25;;;7.97;;
12958;SDS011;6544;51.666;6.634;2023-08-20T04:09:10;10.00;;;7.47;;
12958;SDS011;6544;51.666;6.634;2023-08-20T04:11:37;11.43;;;8.25;;
12958;SDS011;6544;51.666;6.634;2023-08-20T04:14:04;10.13;;;7.90;;
12958;SDS011;6544;51.666;6.634;2023-08-20T04:16:31;9.25;;;7.63;;
12958;SDS011;6544;51.666;6.634;2023-08-20T04:18:58;10.30;;;7.50;;
12958;SDS011;6544;51.666;6.634;2023-08-20T04:21:27;9.30;;;7.50;;
12958;SDS011;6544;51.666;6.634;2023-08-20T04:23:54;11.60;;;7.55;;
12958;SDS011;6544;51.666;6.634;2023-08-20T04:26:20;10.15;;;7.30;;
12958;SDS011;6544;51.666;6.634;2023-08-20T04:28:47;10.90;;;7.53;;
12958;SDS011;6544;51.666;6.634;2023-08-20T04:31:14;12.20;;;7.20;;
12958;SDS011;6544;51.666;6.634;2023-08-20T04:33:41;8.98;;;7.10;;
12958;SDS011;6544;51.666;6.634;2023-08-20T04:36:08;9.02;;;7.18;;
12958;SDS011;6544;51.666;6.634;2023-08-20T04:38:36;10.98;;;7.68;;
12958;SDS011;6544;51.666;6.634;2023-08-20T04:41:03;10.57;;;7.60;;
12958;SDS011;6544;51.666;6.634;2023-08-20T04:43:30;11.05;;;7.30;;
12958;SDS011;6544;51.666;6.634;2023-08-20T04:45:57;8.70;;;7.50;;
12958;SDS011;6544;51.666;6.634;2023-08-20T04:48:24;8.20;;;7.20;;
12958;SDS011;6544;51.666;6.634;2023-08-20T04:50:51;8.68;;;6.80;;
12958;SDS011;6544;51.666;6.634;2023-08-20T04:53:17;7.97;;;6.85;;
12958;SDS011;6544;51.666;6.634;2023-08-20T04:55:46;9.23;;;7.00;;
12958;SDS011;6544;51.666;6.634;2023-08-20T04:58:13;10.23;;;7.40;;
12958;SDS011;6544;51.666;6.634;2023-08-20T05:00:40;8.65;;;7.43;;
12958;SDS011;6544;51.666;6.634;2023-08-20T05:03:08;11.48;;;7.60;;
12958;SDS011;6544;51.666;6.634;2023-08-20T05:05:35;12.95;;;7.78;;
12958;SDS011;6544;51.666;6.634;2023-08-20T05:08:02;10.45;;;7.93;;
12958;SDS011;6544;51.666;6.634;2023-08-20T05:10:30;11.45;;;7.70;;
12958;SDS011;6544;51.666;6.634;2023-08-20T05:12:58;10.52;;;8.02;;
12958;SDS011;6544;51.666;6.634;2023-08-20T05:15:25;9.77;;;7.25;;
12958;SDS011;6544;51.666;6.634;2023-08-20T05:17:52;10.30;;;7.43;;
12958;SDS011;6544;51.666;6.634;2023-08-20T05:20:19;9.93;;;7.22;;
12958;SDS011;6544;51.666;6.634;2023-08-20T05:22:46;12.40;;;7.82;;
12958;SDS011;6544;51.666;6.634;2023-08-20T05:25:13;10.73;;;7.40;;
12958;SDS011;6544;51.666;6.634;2023-08-20T05:27:40;9.65;;;7.05;;
12958;SDS011;6544;51.666;6.634;2023-08-20T05:30:09;10.00;;;8.07;;
12958;SDS011;6544;51.666;6.634;2023-08-20T05:32:36;12.18;;;7.75;;
12958;SDS011;6544;51.666;6.634;2023-08-20T05:35:04;10.68;;;7.88;;
12958;SDS011;6544;51.666;6.634;2023-08-20T05:37:32;9.45;;;6.95;;
12958;SDS011;6544;51.666;6.634;2023-08-20T05:39:58;9.48;;;7.50;;
12958;SDS011;6544;51.666;6.634;2023-08-20T05:42:25;12.88;;;7.72;;
12958;SDS011;6544;51.666;6.634;2023-08-20T05:44:53;9.60;;;7.30;;
12958;SDS011;6544;51.666;6.634;2023-08-20T05:47:21;11.38;;;7.40;;
12958;SDS011;6544;51.666;6.634;2023-08-20T05:49:48;13.68;;;7.20;;
12958;SDS011;6544;51.666;6.634;2023-08-20T05:52:15;14.10;;;7.60;;
12958;SDS011;6544;51.666;6.634;2023-08-20T05:54:42;11.75;;;7.88;;
12958;SDS011;6544;51.666;6.634;2023-08-20T05:57:09;12.18;;;7.53;;
12958;SDS011;6544;51.666;6.634;2023-08-20T05:59:35;12.68;;;7.72;;
12958;SDS011;6544;51.666;6.634;2023-08-20T06:02:03;14.50;;;8.50;;
12958;SDS011;6544;51.666;6.634;2023-08-20T06:04:31;15.25;;;8.73;;
12958;SDS011;6544;51.666;6.634;2023-08-20T06:06:58;11.27;;;9.20;;
12958;SDS011;6544;51.666;6.634;2023-08-20T06:09:25;15.75;;;9.73;;
12958;SDS011;6544;51.666;6.634;2023-08-20T06:11:52;14.45;;;9.70;;
12958;SDS011;6544;51.666;6.634;2023-08-20T06:14:18;15.60;;;10.13;;
12958;SDS011;6544;51.666;6.634;2023-08-20T06:16:45;13.23;;;10.15;;
12958;SDS011;6544;51.666;6.634;2023-08-20T06:19:12;17.27;;;9.73;;
12958;SDS011;6544;51.666;6.634;2023-08-20T06:21:41;14.07;;;9.05;;
12958;SDS011;6544;51.666;6.634;2023-08-20T06:24:08;11.68;;;9.02;;
12958;SDS011;6544;51.666;6.634;2023-08-20T06:26:35;19.02;;;9.63;;
12958;SDS011;6544;51.666;6.634;2023-08-20T06:29:02;14.10;;;9.60;;
12958;SDS011;6544;51.666;6.634;2023-08-20T06:31:29;14.07;;;10.52;;
12958;SDS011;6544;51.666;6.634;2023-08-20T06:33:56;14.32;;;10.02;;
12958;SDS011;6544;51.666;6.634;2023-08-20T06:36:23;14.68;;;10.23;;
12958;SDS011;6544;51.666;6.634;2023-08-20T06:38:51;19.02;;;11.48;;
12958;SDS011;6544;51.666;6.634;2023-08-20T06:41:18;15.10;;;10.98;;
12958;SDS011;6544;51.666;6.634;2023-08-20T06:43:45;14.80;;;10.27;;
12958;SDS011;6544;51.666;6.634;2023-08-20T06:46:12;13.13;;;10.68;;
12958;SDS011;6544;51.666;6.634;2023-08-20T06:48:39;14.05;;;11.05;;
12958;SDS011;6544;51.666;6.634;2023-08-20T06:51:07;16.25;;;10.45;;
12958;SDS011;6544;51.666;6.634;2023-08-20T06:53:37;18.88;;;11.27;;
12958;SDS011;6544;51.666;6.634;2023-08-20T06:56:07;16.30;;;11.23;;
12958;SDS011;6544;51.666;6.634;2023-08-20T06:58:34;18.98;;;13.93;;
12958;SDS011;6544;51.666;6.634;2023-08-20T07:01:01;18.15;;;14.00;;
12958;SDS011;6544;51.666;6.634;2023-08-20T07:03:33;20.00;;;15.90;;
12958;SDS011;6544;51.666;6.634;2023-08-20T07:06:00;20.23;;;14.35;;
12958;SDS011;6544;51.666;6.634;2023-08-20T07:08:27;18.88;;;14.13;;
12958;SDS011;6544;51.666;6.634;2023-08-20T07:10:54;24.85;;;17.05;;
12958;SDS011;6544;51.666;6.634;2023-08-20T07:13:22;23.65;;;18.45;;
12958;SDS011;6544;51.666;6.634;2023-08-20T07:15:49;26.15;;;18.25;;
12958;SDS011;6544;51.666;6.634;2023-08-20T07:18:17;23.27;;;17.98;;
12958;SDS011;6544;51.666;6.634;2023-08-20T07:20:43;23.65;;;18.77;;
12958;SDS011;6544;51.666;6.634;2023-08-20T07:23:10;26.23;;;19.02;;
12958;SDS011;6544;51.666;6.634;2023-08-20T07:25:38;27.95;;;19.25;;
12958;SDS011;6544;51.666;6.634;2023-08-20T07:28:07;31.45;;;22.58;;
12958;SDS011;6544;51.666;6.634;2023-08-20T07:30:36;30.50;;;23.75;;
12958;SDS011;6544;51.666;6.634;2023-08-20T07:33:03;28.83;;;22.88;;
12958;SDS011;6544;51.666;6.634;2023-08-20T07:35:32;30.70;;;21.80;;
12958;SDS011;6544;51.666;6.634;2023-08-20T07:38:00;26.10;;;21.25;;
12958;SDS011;6544;51.666;6.634;2023-08-20T07:40:27;25.73;;;20.10;;
12958;SDS011;6544;51.666;6.634;2023-08-20T07:42:59;28.27;;;19.63;;
12958;SDS011;6544;51.666;6.634;2023-08-20T07:45:28;27.08;;;20.35;;
12958;SDS011;6544;51.666;6.634;2023-08-20T07:47:56;26.05;;;19.30;;
12958;SDS011;6544;51.666;6.634;2023-08-20T07:50:23;25.00;;;19.10;;
12958;SDS011;6544;51.666;6.634;2023-08-20T07:52:50;23.45;;;18.55;;
12958;SDS011;6544;51.666;6.634;2023-08-20T07:55:17;23.30;;;18.38;;
12958;SDS011;6544;51.666;6.634;2023-08-20T07:57:43;24.70;;;19.88;;
12958;SDS011;6544;51.666;6.634;2023-08-20T08:00:11;25.50;;;19.38;;
12958;SDS011;6544;51.666;6.634;2023-08-20T08:02:39;25.17;;;18.15;;
12958;SDS011;6544;51.666;6.634;2023-08-20T08:05:08;23.65;;;16.85;;
12958;SDS011;6544;51.666;6.634;2023-08-20T08:07:35;24.10;;;17.38;;
12958;SDS011;6544;51.666;6.634;2023-08-20T08:10:02;19.88;;;16.25;;
12958;SDS011;6544;51.666;6.634;2023-08-20T08:12:29;25.83;;;18.17;;
12958;SDS011;6544;51.666;6.634;2023-08-20T08:14:56;22.75;;;17.20;;
12958;SDS011;6544;51.666;6.634;2023-08-20T08:17:23;26.95;;;16.70;;
12958;SDS011;6544;51.666;6.634;2023-08-20T08:19:50;18.98;;;14.73;;
12958;SDS011;6544;51.666;6.634;2023-08-20T08:22:20;24.58;;;16.15;;
12958;SDS011;6544;51.666;6.634;2023-08-20T08:24:47;24.58;;;16.45;;
12958;SDS011;6544;51.666;6.634;2023-08-20T08:27:14;23.75;;;19.05;;
12958;SDS011;6544;51.666;6.634;2023-08-20T08:29:40;28.08;;;19.92;;
12958;SDS011;6544;51.666;6.634;2023-08-20T08:32:09;24.58;;;19.02;;
12958;SDS011;6544;51.666;6.634;2023-08-20T08:34:36;24.33;;;18.35;;
12958;SDS011;6544;51.666;6.634;2023-08-20T08:37:03;22.73;;;16.45;;
12958;SDS011;6544;51.666;6.634;2023-08-20T08:39:32;24.77;;;19.60;;
12958;SDS011;6544;51.666;6.634;2023-08-20T08:42:00;26.00;;;19.15;;
12958;SDS011;6544;51.666;6.634;2023-08-20T08:44:29;27.40;;;20.13;;
12958;SDS011;6544;51.666;6.634;2023-08-20T08:46:57;28.48;;;19.80;;
12958;SDS011;6544;51.666;6.634;2023-08-20T08:49:24;28.27;;;19.05;;
12958;SDS011;6544;51.666;6.634;2023-08-20T08:51:52;24.70;;;17.90;;
12958;SDS011;6544;51.666;6.634;2023-08-20T08:54:22;23.50;;;18.67;;
12958;SDS011;6544;51.666;6.634;2023-08-20T08:56:51;26.70;;;19.50;;
12958;SDS011;6544;51.666;6.634;2023-08-20T08:59:18;23.80;;;17.33;;
12958;SDS011;6544;51.666;6.634;2023-08-20T09:01:46;24.65;;;20.00;;
12958;SDS011;6544;51.666;6.634;2023-08-20T09:04:13;22.50;;;17.42;;
12958;SDS011;6544;51.666;6.634;2023-08-20T09:06:46;23.13;;;17.77;;
12958;SDS011;6544;51.666;6.634;2023-08-20T09:09:14;25.33;;;16.95;;
12958;SDS011;6544;51.666;6.634;2023-08-20T09:11:43;22.77;;;18.38;;
12958;SDS011;6544;51.666;6.634;2023-08-20T09:14:21;23.92;;;17.50;;
12958;SDS011;6544;51.666;6.634;2023-08-20T09:16:53;26.48;;;18.63;;
12958;SDS011;6544;51.666;6.634;2023-08-20T09:19:22;24.10;;;18.67;;
12958;SDS011;6544;51.666;6.634;2023-08-20T09:21:49;21.15;;;18.45;;
12958;SDS011;6544;51.666;6.634;2023-08-20T09:24:25;22.60;;;17.55;;
12958;SDS011;6544;51.666;6.634;2023-08-20T09:26:58;24.90;;;21.02;;
12958;SDS011;6544;51.666;6.634;2023-08-20T09:29:26;25.92;;;20.40;;
12958;SDS011;6544;51.666;6.634;2023-08-20T09:31:59;21.10;;;18.83;;
12958;SDS011;6544;51.666;6.634;2023-08-20T09:34:35;25.10;;;20.77;;
12958;SDS011;6544;51.666;6.634;2023-08-20T09:37:04;20.50;;;18.25;;
12958;SDS011;6544;51.666;6.634;2023-08-20T09:39:33;17.17;;;14.18;;
12958;SDS011;6544;51.666;6.634;2023-08-20T09:42:00;14.88;;;11.57;;
12958;SDS011;6544;51.666;6.634;2023-08-20T09:44:31;13.13;;;9.57;;
12958;SDS011;6544;51.666;6.634;2023-08-20T09:47:00;11.45;;;8.60;;
12958;SDS011;6544;51.666;6.634;2023-08-20T09:49:30;12.15;;;9.52;;
12958;SDS011;6544;51.666;6.634;2023-08-20T09:52:02;17.45;;;11.80;;
12958;SDS011;6544;51.666;6.634;2023-08-20T09:54:33;15.40;;;11.98;;
12958;SDS011;6544;51.666;6.634;2023-08-20T09:57:07;12.57;;;10.40;;
12958;SDS011;6544;51.666;6.634;2023-08-20T09:59:40;18.73;;;13.55;;
12958;SDS011;6544;51.666;6.634;2023-08-20T10:02:08;17.40;;;12.88;;
12958;SDS011;6544;51.666;6.634;2023-08-20T10:04:40;18.83;;;12.77;;
12958;SDS011;6544;51.666;6.634;2023-08-20T10:07:08;17.80;;;12.35;;
12958;SDS011;6544;51.666;6.634;2023-08-20T10:09:36;14.95;;;11.65;;
12958;SDS011;6544;51.666;6.634;2023-08-20T10:12:05;13.05;;;11.65;;
12958;SDS011;6544;51.666;6.634;2023-08-20T10:14:33;15.15;;;8.82;;
12958;SDS011;6544;51.666;6.634;2023-08-20T10:17:07;15.40;;;10.77;;
12958;SDS011;6544;51.666;6.634;2023-08-20T10:19:34;16.88;;;10.75;;
12958;SDS011;6544;51.666;6.634;2023-08-20T10:22:02;15.02;;;10.40;;
12958;SDS011;6544;51.666;6.634;2023-08-20T10:24:39;11.38;;;10.05;;
12958;SDS011;6544;51.666;6.634;2023-08-20T10:27:08;13.18;;;9.38;;
12958;SDS011;6544;51.666;6.634;2023-08-20T10:29:39;13.63;;;10.10;;
12958;SDS011;6544;51.666;6.634;2023-08-20T10:32:09;14.60;;;11.25;;
12958;SDS011;6544;51.666;6.634;2023-08-20T10:34:38;12.98;;;9.23;;
12958;SDS011;6544;51.666;6.634;2023-08-20T10:37:09;12.75;;;8.45;;
12958;SDS011;6544;51.666;6.634;2023-08-20T10:39:36;10.30;;;7.85;;
12958;SDS011;6544;51.666;6.634;2023-08-20T10:42:11;13.30;;;7.60;;
12958;SDS011;6544;51.666;6.634;2023-08-20T10:44:56;9.45;;;5.72;;
12958;SDS011;6544;51.666;6.634;2023-08-20T10:47:29;9.02;;;6.30;;
12958;SDS011;6544;51.666;6.634;2023-08-20T10:50:11;11.18;;;6.20;;
12958;SDS011;6544;51.666;6.634;2023-08-20T10:52:46;10.27;;;5.40;;
12958;SDS011;6544;51.666;6.634;2023-08-20T10:55:14;9.25;;;4.60;;
12958;SDS011;6544;51.666;6.634;2023-08-20T10:57:42;8.55;;;4.40;;
12958;SDS011;6544;51.666;6.634;2023-08-20T11:00:09;8.88;;;3.95;;
12958;SDS011;6544;51.666;6.634;2023-08-20T11:02:43;8.80;;;4.10;;
12958;SDS011;6544;51.666;6.634;2023-08-20T11:05:16;8.02;;;3.67;;
12958;SDS011;6544;51.666;6.634;2023-08-20T11:07:45;7.75;;;3.38;;
12958;SDS011;6544;51.666;6.634;2023-08-20T11:10:13;8.13;;;3.00;;
12958;SDS011;6544;51.666;6.634;2023-08-20T11:12:41;6.55;;;3.10;;
12958;SDS011;6544;51.666;6.634;2023-08-20T11:15:08;7.78;;;2.90;;
12958;SDS011;6544;51.666;6.634;2023-08-20T11:17:40;8.48;;;3.00;;
12958;SDS011;6544;51.666;6.634;2023-08-20T11:20:09;8.30;;;3.13;;
12958;SDS011;6544;51.666;6.634;2023-08-20T11:22:38;10.27;;;3.20;;
12958;SDS011;6544;51.666;6.634;2023-08-20T11:25:06;5.85;;;2.42;;
12958;SDS011;6544;51.666;6.634;2023-08-20T11:27:39;6.82;;;3.00;;
12958;SDS011;6544;51.666;6.634;2023-08-20T11:30:07;6.53;;;2.92;;
12958;SDS011;6544;51.666;6.634;2023-08-20T11:32:36;9.02;;;2.97;;
12958;SDS011;6544;51.666;6.634;2023-08-20T11:35:06;7.20;;;2.85;;
12958;SDS011;6544;51.666;6.634;2023-08-20T11:37:34;12.45;;;3.00;;
12958;SDS011;6544;51.666;6.634;2023-08-20T11:40:01;8.93;;;2.92;;
12958;SDS011;6544;51.666;6.634;2023-08-20T11:42:28;9.60;;;3.15;;
12958;SDS011;6544;51.666;6.634;2023-08-20T11:44:55;6.25;;;2.67;;
12958;SDS011;6544;51.666;6.634;2023-08-20T11:47:23;4.60;;;2.53;;
12958;SDS011;6544;51.666;6.634;2023-08-20T11:50:01;4.55;;;2.30;;
12958;SDS011;6544;51.666;6.634;2023-08-20T11:52:32;5.78;;;2.28;;
12958;SDS011;6544;51.666;6.634;2023-08-20T11:54:59;6.00;;;2.35;;
12958;SDS011;6544;51.666;6.634;2023-08-20T11:57:28;6.47;;;2.33;;
12958;SDS011;6544;51.666;6.634;2023-08-20T11:59:57;8.15;;;3.00;;
12958;SDS011;6544;51.666;6.634;2023-08-20T12:02:30;5.07;;;2.30;;
12958;SDS011;6544;51.666;6.634;2023-08-20T12:04:57;4.68;;;2.22;;
12958;SDS011;6544;51.666;6.634;2023-08-20T12:07:25;6.57;;;2.75;;
12958;SDS011;6544;51.666;6.634;2023-08-20T12:09:54;6.22;;;2.38;;
12958;SDS011;6544;51.666;6.634;2023-08-20T12:12:21;5.85;;;2.20;;
12958;SDS011;6544;51.666;6.634;2023-08-20T12:14:48;7.00;;;2.25;;
12958;SDS011;6544;51.666;6.634;2023-08-20T12:17:16;7.07;;;2.50;;
12958;SDS011;6544;51.666;6.634;2023-08-20T12:19:43;7.20;;;2.40;;
12958;SDS011;6544;51.666;6.634;2023-08-20T12:22:10;4.60;;;1.95;;
12958;SDS011;6544;51.666;6.634;2023-08-20T12:24:37;6.85;;;2.38;;
12958;SDS011;6544;51.666;6.634;2023-08-20T12:27:06;4.97;;;1.70;;
12958;SDS011;6544;51.666;6.634;2023-08-20T12:29:33;4.15;;;1.73;;
12958;SDS011;6544;51.666;6.634;2023-08-20T12:32:00;5.18;;;1.88;;
12958;SDS011;6544;51.666;6.634;2023-08-20T12:34:29;4.95;;;1.70;;
12958;SDS011;6544;51.666;6.634;2023-08-20T12:36:56;3.95;;;1.70;;
12958;SDS011;6544;51.666;6.634;2023-08-20T12:39:23;4.30;;;1.80;;
12958;SDS011;6544;51.666;6.634;2023-08-20T12:41:50;5.78;;;1.92;;
12958;SDS011;6544;51.666;6.634;2023-08-20T12:44:19;4.57;;;1.50;;
12958;SDS011;6544;51.666;6.634;2023-08-20T12:46:46;6.15;;;1.60;;
12958;SDS011;6544;51.666;6.634;2023-08-20T12:49:13;4.55;;;1.80;;
12958;SDS011;6544;51.666;6.634;2023-08-20T12:51:39;3.55;;;1.42;;
12958;SDS011;6544;51.666;6.634;2023-08-20T12:54:06;3.75;;;1.80;;
12958;SDS011;6544;51.666;6.634;2023-08-20T12:56:33;5.05;;;1.52;;
12958;SDS011;6544;51.666;6.634;2023-08-20T12:59:00;4.00;;;1.83;;
12958;SDS011;6544;51.666;6.634;2023-08-20T13:01:29;4.13;;;1.75;;
12958;SDS011;6544;51.666;6.634;2023-08-20T13:03:56;4.18;;;1.60;;
12958;SDS011;6544;51.666;6.634;2023-08-20T13:06:24;4.75;;;1.63;;
12958;SDS011;6544;51.666;6.634;2023-08-20T13:08:52;3.92;;;1.80;;
12958;SDS011;6544;51.666;6.634;2023-08-20T13:11:19;6.38;;;1.70;;
12958;SDS011;6544;51.666;6.634;2023-08-20T13:13:48;4.30;;;1.70;;
12958;SDS011;6544;51.666;6.634;2023-08-20T13:16:18;4.00;;;1.77;;
12958;SDS011;6544;51.666;6.634;2023-08-20T13:18:47;5.85;;;1.60;;
12958;SDS011;6544;51.666;6.634;2023-08-20T13:21:14;6.00;;;1.80;;
12958;SDS011;6544;51.666;6.634;2023-08-20T13:23:41;5.88;;;1.80;;
12958;SDS011;6544;51.666;6.634;2023-08-20T13:26:09;6.10;;;1.88;;
12958;SDS011;6544;51.666;6.634;2023-08-20T13:28:36;5.32;;;1.90;;
12958;SDS011;6544;51.666;6.634;2023-08-20T13:31:03;4.97;;;1.90;;
12958;SDS011;6544;51.666;6.634;2023-08-20T13:33:30;4.43;;;1.75;;
12958;SDS011;6544;51.666;6.634;2023-08-20T13:35:59;6.72;;;2.10;;
12958;SDS011;6544;51.666;6.634;2023-08-20T13:38:27;5.70;;;1.70;;
12958;SDS011;6544;51.666;6.634;2023-08-20T13:40:55;4.72;;;2.08;;
12958;SDS011;6544;51.666;6.634;2023-08-20T13:43:23;4.30;;;1.75;;
12958;SDS011;6544;51.666;6.634;2023-08-20T13:45:50;3.95;;;1.70;;
12958;SDS011;6544;51.666;6.634;2023-08-20T13:48:17;3.88;;;1.60;;
12958;SDS011;6544;51.666;6.634;2023-08-20T13:50:44;6.13;;;1.95;;
12958;SDS011;6544;51.666;6.634;2023-08-20T13:53:12;4.15;;;1.90;;
12958;SDS011;6544;51.666;6.634;2023-08-20T13:55:39;4.28;;;2.20;;
12958;SDS011;6544;51.666;6.634;2023-08-20T13:58:06;3.67;;;1.52;;
12958;SDS011;6544;51.666;6.634;2023-08-20T14:00:33;5.35;;;3.33;;
12958;SDS011;6544;51.666;6.634;2023-08-20T14:03:00;5.45;;;2.10;;
12958;SDS011;6544;51.666;6.634;2023-08-20T14:05:27;4.95;;;1.83;;
12958;SDS011;6544;51.666;6.634;2023-08-20T14:07:55;6.85;;;2.03;;
12958;SDS011;6544;51.666;6.634;2023-08-20T14:10:23;4.25;;;1.63;;
12958;SDS011;6544;51.666;6.634;2023-08-20T14:12:50;4.68;;;2.25;;
12958;SDS011;6544;51.666;6.634;2023-08-20T14:15:17;3.47;;;1.90;;
12958;SDS011;6544;51.666;6.634;2023-08-20T14:17:44;2.75;;;1.50;;
12958;SDS011;6544;51.666;6.634;2023-08-20T14:20:11;3.72;;;1.63;;
12958;SDS011;6544;51.666;6.634;2023-08-20T14:22:41;5.20;;;2.03;;
12958;SDS011;6544;51.666;6.634;2023-08-20T14:25:09;5.53;;;1.67;;
12958;SDS011;6544;51.666;6.634;2023-08-20T14:27:38;8.45;;;4.30;;
12958;SDS011;6544;51.666;6.634;2023-08-20T14:30:06;4.18;;;1.65;;
12958;SDS011;6544;51.666;6.634;2023-08-20T14:32:35;5.68;;;1.95;;
12958;SDS011;6544;51.666;6.634;2023-08-20T14:35:02;4.15;;;1.60;;
12958;SDS011;6544;51.666;6.634;2023-08-20T14:37:30;4.97;;;1.70;;
12958;SDS011;6544;51.666;6.634;2023-08-20T14:39:57;2.97;;;1.50;;
12958;SDS011;6544;51.666;6.634;2023-08-20T14:42:24;4.88;;;1.55;;
12958;SDS011;6544;51.666;6.634;2023-08-20T14:44:52;6.35;;;1.73;;
12958;SDS011;6544;51.666;6.634;2023-08-20T14:47:20;4.38;;;1.98;;
12958;SDS011;6544;51.666;6.634;2023-08-20T14:49:47;4.60;;;1.90;;
12958;SDS011;6544;51.666;6.634;2023-08-20T14:52:14;3.80;;;1.55;;
12958;SDS011;6544;51.666;6.634;2023-08-20T14:54:41;4.15;;;1.60;;
12958;SDS011;6544;51.666;6.634;2023-08-20T14:57:08;3.72;;;1.40;;
12958;SDS011;6544;51.666;6.634;2023-08-20T14:59:35;2.38;;;1.40;;